Currently 32°F in Anza, California, USA
32°F
44°F / 19°F
calm
0.00"
Wednesday, February 21, 2018 8:33 PM PST

Anza, California Weather Summary
Last 36 Hours

Temperature Winds Hourly Humidity Dewpoint
Time Report Norm Report Norm Max Gusts Precip. Rpt. Norm Rpt. Norm Pressure
1Wed 08:33 PM  31.8°F  43°F  calm  4 mph  7 mph  0.00"  97%  71%  31°F  34°F  N/A
Wed 08:00 PM  31.9°F  44°F  3 mph N  4 mph  8 mph  0.00"  96%  70%  31°F  34°F  N/A
Wed 07:00 PM  31.8°F  47°F  3 mph N  5 mph  7 mph  0.00"  96%  66%  31°F  35°F  N/A
Wed 06:00 PM  34.4°F  50°F  calm  5 mph  16 mph  0.00"  95%  60%  33°F  36°F  N/A
Wed 05:00 PM  35.1°F  55°F  calm  8 mph  17 mph  0.00"  96%  50%  34°F  36°F  N/A
Wed 04:00 PM  40.9°F  58°F  9 mph W  10 mph  13 mph  0.00"  72%  46%  32°F  36°F  N/A
Wed 03:00 PM  42.2°F  59°F  8 mph NW  10 mph  16 mph  0.00"  65%  44%  31°F  36°F  N/A
Wed 02:00 PM  42.9°F  60°F  10 mph W  10 mph  14 mph  0.00"  62%  41%  30°F  36°F  N/A
Wed 01:00 PM  42.9°F  60°F  8 mph NW  11 mph  18 mph  0.00"  59%  41%  29°F  35°F  N/A
Wed 12:00 PM  43.0°F  59°F  6 mph W  10 mph  15 mph  0.00"  56%  42%  28°F  35°F  N/A
2Wed 11:10 AM  44.2°F  59°F  8 mph W  10 mph  18 mph  ----  57%  42%  29°F  35°F  N/A
Wed 11:00 AM  44.0°F  58°F  10 mph W  10 mph  18 mph  0.00"  55%  43%  28°F  35°F  N/A
Wed 10:00 AM  42.0°F  57°F  7 mph NW  10 mph  13 mph  0.00"  63%  45%  30°F  35°F  N/A
Wed 09:00 AM  38.1°F  54°F  11 mph W  8 mph  13 mph  0.00"  70%  50%  29°F  35°F  N/A
Wed 08:00 AM  34.5°F  49°F  1 mph N  5 mph  7 mph  0.00"  67%  58%  24°F  34°F  N/A
Wed 07:00 AM  32.0°F  42°F  calm  4 mph  7 mph  0.00"  66%  68%  21°F  31°F  N/A
Wed 06:00 AM  32.1°F  40°F  3 mph N  4 mph  7 mph  0.00"  63%  70%  21°F  30°F  N/A
Wed 05:00 AM  26.2°F  41°F  1 mph N  5 mph  3 mph  0.00"  75%  68%  19°F  31°F  N/A
Wed 04:00 AM  26.3°F  42°F  calm  5 mph  3 mph  0.00"  72%  68%  18°F  31°F  N/A
Wed 03:00 AM  20.2°F  42°F  calm  5 mph  3 mph  0.00"  76%  69%  13°F  32°F  N/A
Wed 02:00 AM  19.6°F  42°F  calm  5 mph  1 mph  0.00"  76%  70%  13°F  32°F  N/A
3Wed 01:35 AM  19.3°F  41°F  calm  5 mph  none  ----  75%  71%  12°F  32°F  N/A
Wed 01:00 AM  20.2°F  41°F  calm  5 mph  4 mph  0.00"  73%  72%  12°F  32°F  N/A
Wed 12:00 AM  23.5°F  42°F  calm  5 mph  5 mph  0.00"  64%  72%  13°F  33°F  N/A
Tue 11:00 PM  23.4°F  42°F  calm  4 mph  9 mph  0.00"  63%  72%  12°F  33°F  N/A
Tue 10:00 PM  23.1°F  42°F  2 mph NW  4 mph  5 mph  0.00"  64%  71%  12°F  33°F  N/A
Tue 09:00 PM  26.5°F  43°F  3 mph SW  4 mph  4 mph  0.00"  60%  69%  14°F  34°F  N/A
Tue 08:00 PM  27.7°F  45°F  calm  4 mph  4 mph  0.00"  59%  68%  14°F  34°F  N/A
Tue 07:00 PM  32.4°F  48°F  calm  5 mph  5 mph  0.00"  53%  64%  16°F  35°F  N/A
Tue 06:00 PM  37.7°F  51°F  calm  6 mph  11 mph  0.00"  39%  58%  14°F  36°F  N/A
Tue 05:00 PM  41.8°F  56°F  6 mph S  8 mph  15 mph  0.00"  35%  48%  15°F  36°F  N/A
Tue 04:00 PM  43.6°F  59°F  7 mph S  10 mph  14 mph  0.00"  35%  44%  16°F  36°F  N/A
Tue 03:00 PM  44.9°F  60°F  7 mph SE  10 mph  15 mph  0.00"  34%  42%  17°F  36°F  N/A
Tue 02:00 PM  44.9°F  61°F  10 mph SE  10 mph  15 mph  0.00"  34%  40%  17°F  36°F  N/A
Tue 01:00 PM  44.9°F  61°F  5 mph SE  11 mph  14 mph  0.00"  34%  39%  17°F  35°F  N/A
Tue 12:00 PM  43.2°F  60°F  7 mph E  10 mph  15 mph  0.00"  37%  40%  18°F  35°F  N/A
Tue 11:00 AM  42.5°F  60°F  5 mph SE  10 mph  16 mph  0.00"  33%  41%  14°F  35°F  N/A
Tue 10:00 AM  41.6°F  58°F  2 mph S  10 mph  14 mph  0.00"  36%  44%  16°F  35°F  N/A
Tue 09:00 AM  38.9°F  55°F  7 mph E  8 mph  13 mph  0.00"  39%  49%  15°F  35°F  N/A

  1. Current weather data. No green row appears if the current weather data is also the high or low for the current day.
  2. High temperature for the current day.
  3. Low temperature for the current day.

The Anza, California weather pages are a service of WeatherCurrents. The Anza Valley is southwestern Riverside County, east of Temecula and Aguanga, south of Mount San Jacinto and west of Mount Santa Rosa.
Copyright ©Wed Feb 21 20:34:07 PST 2018  WeatherCurrents. All rights reserved. - Submit questions and comments - Privacy Policy

This page automatically refreshes every 10 minutes.